createdAt,value
2017-08-25T00:00:09.130Z,17.86
2017-08-25T00:01:09.881Z,17.85
2017-08-25T00:02:10.604Z,17.83
2017-08-25T00:03:11.326Z,17.86
2017-08-25T00:04:12.053Z,17.90
2017-08-25T00:05:12.776Z,17.85
2017-08-25T00:06:13.501Z,17.80
2017-08-25T00:07:14.221Z,17.78
2017-08-25T00:08:14.942Z,17.87
2017-08-25T00:09:15.688Z,17.79
2017-08-25T00:10:16.436Z,17.79
2017-08-25T00:11:17.157Z,17.72
2017-08-25T00:12:17.905Z,17.79
2017-08-25T00:13:18.631Z,17.78
2017-08-25T00:14:19.380Z,17.74
2017-08-25T00:15:20.126Z,17.67
2017-08-25T00:16:20.849Z,17.72
2017-08-25T00:17:21.570Z,17.65
2017-08-25T00:18:22.292Z,17.67
2017-08-25T00:19:23.016Z,17.64
2017-08-25T00:20:23.741Z,17.60
2017-08-25T00:21:24.464Z,17.57
2017-08-25T00:22:25.190Z,17.49
2017-08-25T00:23:25.911Z,17.52
2017-08-25T00:24:26.633Z,17.49
2017-08-25T00:25:27.358Z,17.54
2017-08-25T00:26:28.077Z,17.49
2017-08-25T00:27:28.802Z,17.51
2017-08-25T00:28:29.525Z,17.45
2017-08-25T00:29:30.272Z,17.48
2017-08-25T00:30:30.996Z,17.42
2017-08-25T00:31:31.717Z,17.51
2017-08-25T00:32:32.437Z,17.48
2017-08-25T00:33:33.158Z,17.39
2017-08-25T00:34:33.882Z,17.34
2017-08-25T00:35:34.626Z,17.31
2017-08-25T00:36:35.351Z,17.33
2017-08-25T00:37:36.073Z,17.38
2017-08-25T00:38:36.797Z,17.31
2017-08-25T00:39:37.520Z,17.38
2017-08-25T00:40:38.268Z,17.30
2017-08-25T00:41:38.987Z,17.26
2017-08-25T00:42:39.730Z,17.19
2017-08-25T00:43:40.475Z,17.23
2017-08-25T00:44:41.200Z,17.20
2017-08-25T00:45:41.921Z,17.20
2017-08-25T00:46:42.647Z,17.16
2017-08-25T00:47:43.398Z,17.16
2017-08-25T00:48:44.117Z,17.15
2017-08-25T00:49:44.840Z,17.12
2017-08-25T00:50:45.565Z,17.11
2017-08-25T00:51:46.306Z,17.08
2017-08-25T00:52:47.052Z,17.11
2017-08-25T00:53:47.772Z,17.08
2017-08-25T00:54:48.496Z,17.09
2017-08-25T00:55:49.218Z,17.02
2017-08-25T00:56:49.941Z,17.01
2017-08-25T00:57:50.682Z,16.99
2017-08-25T00:58:51.406Z,17.01
2017-08-25T00:59:52.148Z,16.94
2017-08-25T01:00:52.890Z,17.02
2017-08-25T01:01:53.613Z,17.04
2017-08-25T01:02:54.332Z,16.91
2017-08-25T01:03:55.055Z,16.89
2017-08-25T01:04:55.795Z,16.89
2017-08-25T01:05:56.540Z,16.78
2017-08-25T01:06:57.261Z,16.81
2017-08-25T01:07:57.986Z,16.76
2017-08-25T01:08:58.708Z,16.75
2017-08-25T01:09:59.429Z,16.76
2017-08-25T01:11:00.173Z,16.74
2017-08-25T01:12:00.915Z,16.71
2017-08-25T01:13:01.638Z,16.69
2017-08-25T01:14:02.357Z,16.69
2017-08-25T01:15:03.078Z,16.60
2017-08-25T01:16:03.801Z,16.65
2017-08-25T01:17:04.523Z,16.71
2017-08-25T01:18:05.242Z,16.66
2017-08-25T01:19:05.983Z,16.51
2017-08-25T01:20:06.704Z,16.51
2017-08-25T01:21:07.446Z,16.57
2017-08-25T01:22:08.169Z,16.53
2017-08-25T01:23:08.894Z,16.57
2017-08-25T01:24:09.633Z,16.51
2017-08-25T01:25:10.358Z,16.42
2017-08-25T01:26:11.082Z,16.51
2017-08-25T01:27:11.799Z,16.47
2017-08-25T01:28:12.524Z,16.36
2017-08-25T01:29:13.242Z,16.38
2017-08-25T01:30:13.965Z,16.32
2017-08-25T01:31:14.688Z,16.29
2017-08-25T01:32:15.430Z,16.31
2017-08-25T01:33:16.170Z,16.24
2017-08-25T01:34:16.896Z,16.31
2017-08-25T01:35:17.620Z,16.31
2017-08-25T01:36:18.362Z,16.31
2017-08-25T01:37:19.086Z,16.24
2017-08-25T01:38:19.811Z,16.24
2017-08-25T01:39:20.530Z,16.16
2017-08-25T01:40:21.253Z,16.10
2017-08-25T01:41:21.977Z,16.16
2017-08-25T01:42:22.699Z,16.12
2017-08-25T01:43:23.420Z,16.05
2017-08-25T01:44:24.144Z,16.04
2017-08-25T01:45:24.869Z,15.97
2017-08-25T01:46:25.588Z,16.01
2017-08-25T01:47:26.333Z,15.97
2017-08-25T01:48:27.056Z,16.02
2017-08-25T01:49:27.774Z,16.02
2017-08-25T01:50:28.500Z,16.01
2017-08-25T01:51:29.239Z,15.92
2017-08-25T01:52:29.959Z,15.88
2017-08-25T01:53:30.701Z,15.84
2017-08-25T01:54:31.424Z,15.88
2017-08-25T01:55:32.146Z,15.80
2017-08-25T01:56:32.888Z,15.83
2017-08-25T01:57:33.630Z,15.80
2017-08-25T01:58:34.372Z,15.80
2017-08-25T01:59:35.093Z,15.84
2017-08-25T02:00:35.815Z,15.80
2017-08-25T02:01:36.538Z,15.83
2017-08-25T02:02:37.266Z,15.84
2017-08-25T02:03:37.983Z,15.82
2017-08-25T02:04:38.709Z,15.82
2017-08-25T02:05:39.433Z,15.79
2017-08-25T02:06:40.153Z,15.79
2017-08-25T02:07:40.874Z,15.75
2017-08-25T02:08:41.598Z,15.76
2017-08-25T02:09:42.323Z,15.76
2017-08-25T02:10:43.044Z,15.77
2017-08-25T02:11:43.787Z,15.82
2017-08-25T02:12:44.511Z,15.75
2017-08-25T02:13:45.251Z,15.75
2017-08-25T02:14:45.970Z,15.75
2017-08-25T02:15:46.694Z,15.77
2017-08-25T02:16:47.419Z,15.70
2017-08-25T02:17:48.140Z,15.59
2017-08-25T02:18:48.867Z,15.58
2017-08-25T02:19:49.612Z,15.62
2017-08-25T02:20:50.355Z,15.59
2017-08-25T02:21:51.081Z,15.61
2017-08-25T02:22:51.819Z,15.62
2017-08-25T02:23:52.543Z,15.58
2017-08-25T02:24:53.264Z,15.58
2017-08-25T02:25:53.985Z,15.54
2017-08-25T02:26:54.707Z,15.54
2017-08-25T02:27:55.432Z,15.42
2017-08-25T02:28:56.178Z,15.49
2017-08-25T02:29:56.900Z,15.49
2017-08-25T02:30:57.622Z,15.46
2017-08-25T02:31:58.344Z,15.52
2017-08-25T02:32:59.066Z,15.51
2017-08-25T02:33:59.792Z,15.61
2017-08-25T02:35:00.512Z,15.40
2017-08-25T02:36:01.257Z,15.47
2017-08-25T02:37:01.998Z,15.44
2017-08-25T02:38:02.720Z,15.40
2017-08-25T02:39:03.444Z,15.42
2017-08-25T02:40:04.167Z,15.44
2017-08-25T02:41:04.891Z,15.35
2017-08-25T02:42:05.612Z,15.43
2017-08-25T02:43:06.357Z,15.44
2017-08-25T02:44:07.078Z,15.49
2017-08-25T02:45:07.801Z,15.44
2017-08-25T02:46:08.537Z,15.40
2017-08-25T02:47:09.263Z,15.37
2017-08-25T02:48:09.984Z,15.36
2017-08-25T02:49:10.707Z,15.39
2017-08-25T02:50:11.453Z,15.31
2017-08-25T02:51:12.191Z,15.31
2017-08-25T02:52:12.914Z,15.31
2017-08-25T02:53:13.637Z,15.27
2017-08-25T02:54:14.356Z,15.29
2017-08-25T02:55:15.079Z,15.25
2017-08-25T02:56:15.821Z,15.24
2017-08-25T02:57:16.549Z,15.24
2017-08-25T02:58:17.292Z,15.19
2017-08-25T02:59:18.012Z,15.22
2017-08-25T03:00:18.738Z,15.11
2017-08-25T03:01:19.481Z,15.15
2017-08-25T03:02:20.205Z,15.11
2017-08-25T03:03:20.923Z,15.17
2017-08-25T03:04:21.644Z,15.10
2017-08-25T03:05:22.368Z,15.15
2017-08-25T03:06:23.092Z,15.02
2017-08-25T03:07:23.811Z,15.06
2017-08-25T03:08:24.533Z,15.15
2017-08-25T03:09:25.259Z,15.03
2017-08-25T03:10:25.981Z,15.06
2017-08-25T03:11:26.705Z,15.02
2017-08-25T03:12:27.429Z,15.09
2017-08-25T03:13:28.148Z,15.11
2017-08-25T03:14:28.874Z,15.06
2017-08-25T03:15:29.599Z,14.97
2017-08-25T03:16:30.319Z,15.06
2017-08-25T03:17:31.042Z,15.03
2017-08-25T03:18:31.764Z,14.92
2017-08-25T03:19:32.485Z,15.00
2017-08-25T03:20:33.225Z,14.97
2017-08-25T03:21:33.950Z,14.94
2017-08-25T03:22:34.693Z,14.99
2017-08-25T03:23:35.434Z,14.88
2017-08-25T03:24:36.160Z,14.96
2017-08-25T03:25:36.879Z,14.97
2017-08-25T03:28:15.452Z,14.94
2017-08-25T03:29:16.170Z,14.94
2017-08-25T03:30:16.893Z,14.99
2017-08-25T03:31:17.619Z,14.82
2017-08-25T03:32:18.341Z,14.89
2017-08-25T03:33:19.063Z,14.89
2017-08-25T03:34:19.783Z,14.96
2017-08-25T03:35:20.507Z,15.00
2017-08-25T03:36:21.252Z,14.85
2017-08-25T03:37:21.976Z,14.94
2017-08-25T03:38:22.696Z,14.86
2017-08-25T03:39:23.417Z,14.86
2017-08-25T03:40:24.137Z,14.89
2017-08-25T03:41:24.858Z,14.92
2017-08-25T03:42:25.581Z,14.86
2017-08-25T03:43:26.323Z,14.84
2017-08-25T03:44:27.048Z,14.88
2017-08-25T03:45:27.770Z,14.85
2017-08-25T03:46:28.488Z,14.88
2017-08-25T03:47:29.210Z,14.89
2017-08-25T03:48:29.931Z,14.82
2017-08-25T03:49:30.656Z,14.81
2017-08-25T03:50:31.380Z,14.82
2017-08-25T03:51:32.102Z,14.82
2017-08-25T03:52:32.822Z,14.82
2017-08-25T03:53:33.547Z,14.81
2017-08-25T03:54:34.269Z,14.88
2017-08-25T03:55:34.990Z,14.86
2017-08-25T03:56:35.710Z,14.86
2017-08-25T03:57:36.455Z,14.82
2017-08-25T03:58:37.199Z,14.84
2017-08-25T03:59:37.920Z,14.84
2017-08-25T04:00:38.641Z,14.82
2017-08-25T04:01:39.366Z,14.81
2017-08-25T04:02:40.107Z,14.85
2017-08-25T04:03:40.833Z,14.81
2017-08-25T04:04:41.557Z,14.82
2017-08-25T04:05:42.291Z,14.82
2017-08-25T04:06:43.021Z,14.85
2017-08-25T04:07:43.745Z,14.77
2017-08-25T04:08:44.471Z,14.86
2017-08-25T04:09:45.210Z,14.79
2017-08-25T04:10:45.931Z,14.81
2017-08-25T04:11:46.654Z,14.70
2017-08-25T04:12:47.379Z,14.77
2017-08-25T04:13:48.131Z,14.70
2017-08-25T04:14:48.847Z,14.69
2017-08-25T04:15:49.568Z,14.77
2017-08-25T04:16:50.291Z,14.72
2017-08-25T04:17:51.015Z,14.70
2017-08-25T04:18:51.737Z,14.73
2017-08-25T04:19:52.463Z,14.70
2017-08-25T04:20:53.184Z,14.68
2017-08-25T04:21:53.909Z,14.69
2017-08-25T04:22:54.633Z,14.78
2017-08-25T04:23:55.357Z,14.68
2017-08-25T04:24:56.080Z,14.73
2017-08-25T04:25:56.803Z,14.73
2017-08-25T04:26:57.547Z,14.70
2017-08-25T04:27:58.271Z,14.72
2017-08-25T04:28:58.994Z,14.78
2017-08-25T04:29:59.716Z,14.79
2017-08-25T04:31:00.443Z,14.77
2017-08-25T04:32:01.167Z,14.69
2017-08-25T04:33:01.892Z,14.78
2017-08-25T04:34:02.617Z,14.73
2017-08-25T04:35:03.339Z,14.77
2017-08-25T04:36:04.067Z,14.77
2017-08-25T04:37:04.812Z,14.73
2017-08-25T04:38:05.558Z,14.72
2017-08-25T04:39:06.286Z,14.77
2017-08-25T04:40:07.010Z,14.69
2017-08-25T04:41:07.734Z,14.62
2017-08-25T04:42:08.459Z,14.73
2017-08-25T04:43:09.186Z,14.72
2017-08-25T04:44:09.909Z,14.70
2017-08-25T04:45:10.655Z,14.66
2017-08-25T04:46:11.380Z,14.63
2017-08-25T04:47:12.111Z,14.68
2017-08-25T04:48:12.831Z,14.66
2017-08-25T04:49:13.554Z,14.72
2017-08-25T04:50:14.282Z,14.72
2017-08-25T04:51:15.007Z,14.69
2017-08-25T04:52:15.735Z,14.81
2017-08-25T04:53:16.457Z,14.79
2017-08-25T04:54:17.187Z,14.79
2017-08-25T04:55:19.151Z,14.78
2017-08-25T04:56:19.878Z,14.81
2017-08-25T04:57:20.604Z,14.81
2017-08-25T05:03:09.104Z,14.97
2017-08-25T05:05:11.557Z,15.06
2017-08-25T08:49:34.031Z,27.44
2017-08-25T08:50:34.767Z,27.32
2017-08-25T08:51:35.528Z,27.10
2017-08-25T08:52:36.274Z,27.05
2017-08-25T08:53:37.014Z,27.40
2017-08-25T08:54:37.755Z,27.21
2017-08-25T08:55:38.493Z,27.73
2017-08-25T08:56:39.237Z,27.52
2017-08-25T08:57:39.978Z,27.32
2017-08-25T08:58:40.719Z,27.32
2017-08-25T08:59:41.463Z,27.64
2017-08-25T09:00:42.210Z,28.10
2017-08-25T09:01:42.945Z,28.48
2017-08-25T09:02:43.702Z,28.60
2017-08-25T09:03:44.468Z,28.86
2017-08-25T09:04:45.210Z,28.62
2017-08-25T09:05:45.966Z,28.89
2017-08-25T09:06:46.700Z,29.13
2017-08-25T09:07:47.439Z,29.20
2017-08-25T09:08:48.185Z,29.39
2017-08-25T09:09:48.950Z,29.27
2017-08-25T09:10:49.694Z,29.14
2017-08-25T09:11:50.444Z,29.20
2017-08-25T09:12:51.191Z,29.27
2017-08-25T09:13:51.956Z,28.89
2017-08-25T09:14:52.709Z,28.29
2017-08-25T09:15:53.456Z,28.84
2017-08-25T09:16:54.200Z,29.10
2017-08-25T09:17:54.947Z,29.04
2017-08-25T09:18:55.722Z,28.23
2017-08-25T09:19:56.470Z,28.89
2017-08-25T09:20:57.221Z,29.44
2017-08-25T09:21:57.977Z,29.87
2017-08-25T09:22:58.745Z,30.18
2017-08-25T09:23:59.472Z,30.18
2017-08-25T09:25:00.245Z,30.51
2017-08-25T09:26:01.000Z,30.35
2017-08-25T09:27:01.779Z,30.55
2017-08-25T09:28:02.550Z,30.59
2017-08-25T09:29:03.302Z,30.08
2017-08-25T09:30:04.052Z,30.06
2017-08-25T09:31:04.808Z,29.90
2017-08-25T09:32:05.563Z,29.82
2017-08-25T09:33:06.311Z,29.81
2017-08-25T09:34:07.066Z,30.39
2017-08-25T09:35:07.819Z,30.37
2017-08-25T09:36:08.573Z,30.46
2017-08-25T09:37:09.321Z,29.59
2017-08-25T09:38:10.089Z,30.05
2017-08-25T09:39:10.841Z,30.19
2017-08-25T09:40:11.611Z,30.44
2017-08-25T09:41:12.360Z,30.53
2017-08-25T09:42:13.131Z,30.27
2017-08-25T09:43:13.883Z,29.82
2017-08-25T09:44:14.633Z,30.15
2017-08-25T09:45:15.383Z,30.44
2017-08-25T09:46:16.131Z,30.70
2017-08-25T09:47:16.880Z,30.90
2017-08-25T09:48:17.629Z,31.34
2017-08-25T09:49:18.375Z,31.51
2017-08-25T09:50:19.126Z,31.77
2017-08-25T09:51:19.873Z,31.46
2017-08-25T09:52:20.623Z,31.54
2017-08-25T09:53:21.376Z,31.81
2017-08-25T09:54:22.128Z,31.52
2017-08-25T09:55:22.882Z,31.09
2017-08-25T09:56:23.630Z,30.10
2017-08-25T09:57:24.381Z,30.27
2017-08-25T09:58:25.134Z,29.61
2017-08-25T09:59:25.883Z,28.60
2017-08-25T10:00:26.636Z,28.32
2017-08-25T10:01:27.385Z,28.79
2017-08-25T10:02:28.138Z,27.87
2017-08-25T10:03:28.887Z,28.41
2017-08-25T10:04:29.642Z,27.83
2017-08-25T10:05:30.385Z,28.14
2017-08-25T10:06:31.135Z,28.64
2017-08-25T10:07:31.883Z,29.35
2017-08-25T10:08:32.634Z,29.79
2017-08-25T10:09:33.382Z,30.25
2017-08-25T10:10:34.129Z,30.72
2017-08-25T10:11:34.883Z,31.20
2017-08-25T10:12:35.651Z,30.34
2017-08-25T10:13:36.406Z,30.15
2017-08-25T10:14:37.150Z,29.78
2017-08-25T10:15:37.926Z,30.25
2017-08-25T10:16:38.677Z,30.48
2017-08-25T10:17:39.427Z,30.03
2017-08-25T10:18:40.178Z,30.40
2017-08-25T10:19:40.952Z,29.17
2017-08-25T10:20:41.707Z,28.44
2017-08-25T10:21:42.481Z,28.88
2017-08-25T10:22:43.226Z,28.74
2017-08-25T10:23:43.981Z,28.60
2017-08-25T10:24:44.730Z,28.70
2017-08-25T10:25:45.479Z,28.89
2017-08-25T10:26:46.226Z,29.05
2017-08-25T10:27:47.001Z,28.69
2017-08-25T10:28:47.749Z,28.97
2017-08-25T10:29:48.501Z,29.10
2017-08-25T10:30:49.253Z,29.13
2017-08-25T10:31:50.007Z,29.66
2017-08-25T10:32:50.756Z,30.08
2017-08-25T10:33:51.528Z,30.50
2017-08-25T10:34:52.281Z,30.62
2017-08-25T10:35:53.050Z,30.03
2017-08-25T10:36:53.795Z,30.68
2017-08-25T10:37:54.543Z,31.21
2017-08-25T10:38:55.293Z,31.56
2017-08-25T10:39:56.041Z,31.56
2017-08-25T10:40:56.793Z,31.74
2017-08-25T10:41:57.540Z,32.18
2017-08-25T10:42:58.293Z,32.49
2017-08-25T10:43:59.063Z,31.80
2017-08-25T10:44:59.835Z,31.90
2017-08-25T10:46:00.838Z,32.52
2017-08-25T10:47:01.589Z,32.80
2017-08-25T10:48:02.365Z,32.90
2017-08-25T10:49:03.116Z,32.96
2017-08-25T10:50:03.865Z,33.28
2017-08-25T10:51:04.615Z,33.27
2017-08-25T10:52:05.369Z,33.62
2017-08-25T10:53:06.113Z,33.80
2017-08-25T10:54:06.868Z,33.83
2017-08-25T10:55:07.617Z,34.18
2017-08-25T10:56:08.361Z,34.17
2017-08-25T10:57:09.114Z,34.50
2017-08-25T10:58:09.860Z,34.74
2017-08-25T10:59:10.607Z,34.90
2017-08-25T11:00:11.355Z,34.86
2017-08-25T11:01:12.100Z,35.00
2017-08-25T11:02:12.855Z,35.04
2017-08-25T11:03:13.622Z,34.38
2017-08-25T11:04:14.368Z,34.38
2017-08-25T11:05:15.120Z,34.54
2017-08-25T11:06:15.871Z,34.61
2017-08-25T11:07:16.619Z,34.52
2017-08-25T11:08:17.366Z,34.27
2017-08-25T11:09:18.116Z,34.35
2017-08-25T11:10:18.869Z,33.90
2017-08-25T11:11:19.617Z,33.58
2017-08-25T11:12:20.387Z,33.27
2017-08-25T11:13:21.142Z,33.34
2017-08-25T11:14:21.886Z,33.02
2017-08-25T11:15:22.657Z,32.77
2017-08-25T11:16:23.402Z,33.01
2017-08-25T11:17:24.152Z,33.11
2017-08-25T11:18:24.907Z,32.26
2017-08-25T11:19:25.680Z,31.31
2017-08-25T11:20:26.432Z,31.17
2017-08-25T11:21:27.200Z,30.55
2017-08-25T11:22:27.946Z,31.05
2017-08-25T11:23:28.715Z,31.25
2017-08-25T11:24:29.463Z,31.44
2017-08-25T11:25:30.215Z,31.05
2017-08-25T11:26:30.962Z,31.70
2017-08-25T11:27:31.712Z,31.58
2017-08-25T11:28:32.481Z,30.91
2017-08-25T11:29:33.229Z,31.62
2017-08-25T11:30:33.978Z,30.75
2017-08-25T11:31:34.726Z,30.77
2017-08-25T11:32:35.496Z,30.62
2017-08-25T11:33:36.243Z,29.68
2017-08-25T11:34:36.992Z,29.13
2017-08-25T11:35:37.735Z,29.07
2017-08-25T11:36:38.508Z,29.12
2017-08-25T11:37:39.254Z,29.39
2017-08-25T11:38:39.998Z,30.08
2017-08-25T11:39:40.751Z,30.39
2017-08-25T11:40:41.503Z,30.34
2017-08-25T11:41:42.258Z,30.68
2017-08-25T11:42:43.030Z,30.92
2017-08-25T11:43:43.778Z,31.20
2017-08-25T11:44:44.546Z,31.61
2017-08-25T11:45:45.317Z,32.26
2017-08-25T11:46:46.062Z,32.77
2017-08-25T11:47:46.828Z,33.20
2017-08-25T11:48:47.580Z,33.36
2017-08-25T11:49:48.334Z,33.69
2017-08-25T11:50:49.082Z,34.14
2017-08-25T11:51:49.838Z,34.36
2017-08-25T11:52:50.582Z,34.60
2017-08-25T11:53:51.347Z,34.01
2017-08-25T11:54:52.096Z,34.18
2017-08-25T11:55:52.844Z,34.32
2017-08-25T11:56:53.591Z,34.51
2017-08-25T11:57:54.361Z,34.73
2017-08-25T11:58:55.108Z,34.99
2017-08-25T11:59:55.852Z,35.24
2017-08-25T12:00:56.600Z,35.34
2017-08-25T12:01:57.354Z,35.08
2017-08-25T12:02:58.124Z,35.10
2017-08-25T12:03:58.867Z,35.07
2017-08-25T12:04:59.616Z,35.00
2017-08-25T12:06:00.375Z,34.88
2017-08-25T12:07:01.117Z,34.71
2017-08-25T12:08:01.863Z,34.92
2017-08-25T12:09:02.633Z,35.11
2017-08-25T12:10:03.382Z,35.18
2017-08-25T12:11:04.126Z,35.12
2017-08-25T12:12:04.872Z,35.18
2017-08-25T12:13:05.615Z,35.07
2017-08-25T12:14:06.364Z,34.86
2017-08-25T12:15:07.112Z,34.86
2017-08-25T12:16:07.881Z,35.08
2017-08-25T12:17:08.624Z,35.11
2017-08-25T12:18:09.397Z,35.05
2017-08-25T12:19:10.147Z,35.08
2017-08-25T12:20:10.896Z,34.67
2017-08-25T12:21:11.637Z,34.27
2017-08-25T12:22:12.384Z,34.35
2017-08-25T12:23:13.132Z,34.42
2017-08-25T12:24:13.877Z,34.71
2017-08-25T12:25:14.643Z,34.97
2017-08-25T12:26:15.395Z,35.08
2017-08-25T12:27:16.144Z,35.36
2017-08-25T12:28:16.893Z,35.17
2017-08-25T12:29:17.639Z,35.53
2017-08-25T12:30:18.387Z,35.88
2017-08-25T12:31:19.139Z,35.97
2017-08-25T12:32:19.878Z,36.12
2017-08-25T12:33:20.625Z,36.27
2017-08-25T12:34:21.376Z,36.39
2017-08-25T12:35:22.144Z,36.36
2017-08-25T12:36:22.892Z,36.52
2017-08-25T12:37:23.636Z,36.37
2017-08-25T12:38:24.387Z,36.21
2017-08-25T12:39:25.133Z,36.09
2017-08-25T12:40:25.900Z,36.12
2017-08-25T12:41:26.670Z,35.80
2017-08-25T12:42:27.413Z,35.56
2017-08-25T12:43:28.190Z,35.34
2017-08-25T12:44:28.940Z,34.99
2017-08-25T12:45:29.662Z,34.75
2017-08-25T12:46:30.404Z,34.75
2017-08-25T12:47:31.155Z,33.83
2017-08-25T12:48:31.900Z,34.01
2017-08-25T12:49:32.645Z,34.03
2017-08-25T12:50:33.391Z,34.01
2017-08-25T12:51:34.142Z,34.01
2017-08-25T12:52:34.893Z,34.20
2017-08-25T12:53:35.635Z,34.11
2017-08-25T12:54:36.384Z,34.35
2017-08-25T12:55:37.129Z,34.42
2017-08-25T12:56:37.877Z,33.89
2017-08-25T12:57:38.623Z,34.06
2017-08-25T12:58:39.376Z,34.25
2017-08-25T12:59:40.132Z,34.43
2017-08-25T13:00:40.878Z,34.50
2017-08-25T13:01:41.623Z,34.73
2017-08-25T13:02:42.370Z,34.88
2017-08-25T13:03:43.120Z,35.08
2017-08-25T13:04:43.881Z,35.17
2017-08-25T13:05:44.648Z,35.23
2017-08-25T13:06:45.401Z,35.33
2017-08-25T13:07:46.155Z,35.34
2017-08-25T13:08:46.926Z,35.26
2017-08-25T13:09:47.674Z,35.07
2017-08-25T13:10:48.417Z,35.17
2017-08-25T13:11:49.167Z,34.97
2017-08-25T13:12:49.915Z,35.11
2017-08-25T13:13:50.685Z,35.11
2017-08-25T13:14:51.436Z,35.08
2017-08-25T13:15:52.188Z,35.11
2017-08-25T13:16:52.938Z,35.14
2017-08-25T13:17:53.686Z,35.08
2017-08-25T13:18:54.435Z,35.19
2017-08-25T13:19:55.180Z,35.17
2017-08-25T13:20:55.931Z,35.12
2017-08-25T13:21:56.701Z,35.18
2017-08-25T13:22:57.453Z,35.19
2017-08-25T13:23:58.204Z,35.02
2017-08-25T13:24:58.955Z,34.93
2017-08-25T13:25:59.705Z,34.86
2017-08-25T13:27:00.454Z,34.74
2017-08-25T13:28:01.206Z,34.86
2017-08-25T13:29:01.953Z,34.88
2017-08-25T13:30:02.724Z,34.95
2017-08-25T13:31:03.476Z,35.08
2017-08-25T13:32:04.251Z,35.12
2017-08-25T13:33:05.021Z,35.12
2017-08-25T13:34:05.789Z,35.23
2017-08-25T13:35:06.540Z,35.27
2017-08-25T13:36:07.284Z,35.29
2017-08-25T13:37:08.056Z,35.31
2017-08-25T13:38:08.815Z,35.45
2017-08-25T13:39:09.562Z,35.22
2017-08-25T13:40:10.300Z,35.34
2017-08-25T13:41:11.050Z,35.34
2017-08-25T13:42:11.796Z,35.31
2017-08-25T13:43:12.550Z,35.41
2017-08-25T13:44:13.297Z,35.12
2017-08-25T13:45:14.045Z,35.11
2017-08-25T13:46:14.795Z,34.81
2017-08-25T13:47:15.569Z,34.73
2017-08-25T13:48:16.349Z,34.78
2017-08-25T13:49:17.092Z,34.78
2017-08-25T13:50:17.843Z,34.52
2017-08-25T13:51:18.624Z,34.21
2017-08-25T13:52:19.391Z,33.40
2017-08-25T13:53:20.141Z,33.19
2017-08-25T13:54:20.886Z,33.07
2017-08-25T13:55:21.632Z,33.24
2017-08-25T13:56:22.383Z,32.63
2017-08-25T13:57:23.147Z,31.84
2017-08-25T13:58:23.892Z,32.04
2017-08-25T13:59:24.638Z,31.93
2017-08-25T14:00:25.392Z,31.76
2017-08-25T14:01:26.136Z,31.29
2017-08-25T14:02:26.886Z,31.34
2017-08-25T14:03:27.641Z,30.94
2017-08-25T14:04:28.385Z,30.92
2017-08-25T14:05:29.144Z,30.87
2017-08-25T14:06:29.886Z,30.83
2017-08-25T14:07:30.631Z,30.72
2017-08-25T14:08:31.380Z,30.80
2017-08-25T14:09:32.126Z,30.90
2017-08-25T14:10:32.870Z,30.90
2017-08-25T14:11:33.613Z,31.00
2017-08-25T14:12:34.382Z,31.17
2017-08-25T14:13:35.125Z,31.29
2017-08-25T14:14:35.866Z,31.20
2017-08-25T14:15:36.629Z,31.07
2017-08-25T14:16:37.369Z,31.07
2017-08-25T14:17:38.114Z,31.09
2017-08-25T14:18:38.872Z,31.03
2017-08-25T14:19:39.614Z,31.02
2017-08-25T14:20:40.358Z,31.18
2017-08-25T14:21:41.130Z,31.33
2017-08-25T14:22:41.887Z,31.37
2017-08-25T14:23:42.626Z,30.54
2017-08-25T14:24:43.393Z,30.00
2017-08-25T14:25:44.150Z,30.03
2017-08-25T14:26:44.889Z,29.66
2017-08-25T14:27:45.630Z,29.79
2017-08-25T14:28:46.367Z,29.10
2017-08-25T14:29:47.105Z,28.44
2017-08-25T14:30:47.846Z,28.23
2017-08-25T14:31:48.586Z,28.47
2017-08-25T14:32:49.323Z,28.54
2017-08-25T14:33:50.068Z,28.52
2017-08-25T14:34:50.814Z,28.42
2017-08-25T14:35:51.551Z,28.38
2017-08-25T14:36:52.290Z,28.22
2017-08-25T14:37:53.049Z,27.90
2017-08-25T14:38:53.789Z,28.02
2017-08-25T14:39:54.545Z,28.05
2017-08-25T14:40:55.279Z,28.14
2017-08-25T14:41:56.016Z,28.23
2017-08-25T14:42:56.752Z,28.08
2017-08-25T14:43:57.488Z,28.22
2017-08-25T14:44:58.226Z,28.23
2017-08-25T14:45:58.979Z,28.25
2017-08-25T14:46:59.721Z,28.32
2017-08-25T14:48:00.458Z,28.32
2017-08-25T14:49:01.492Z,28.29
2017-08-25T14:50:02.226Z,28.15
2017-08-25T14:51:02.994Z,28.08
2017-08-25T14:52:03.726Z,28.19
2017-08-25T14:53:04.466Z,28.11
2017-08-25T14:54:05.217Z,27.96
2017-08-25T14:55:05.956Z,28.14
2017-08-25T14:56:06.694Z,28.14
2017-08-25T14:57:07.449Z,28.22
2017-08-25T14:58:08.188Z,28.23
2017-08-25T14:59:08.941Z,28.20
2017-08-25T15:00:09.697Z,28.26
2017-08-25T15:01:10.436Z,28.25
2017-08-25T15:02:11.189Z,28.07
2017-08-25T15:03:11.954Z,28.14
2017-08-25T15:04:12.709Z,28.08
2017-08-25T15:05:13.470Z,28.04
2017-08-25T15:06:14.228Z,28.02
2017-08-25T15:07:14.964Z,28.05
2017-08-25T15:08:15.719Z,27.80
2017-08-25T15:09:16.476Z,27.87
2017-08-25T15:10:17.221Z,27.73
2017-08-25T15:11:17.970Z,27.70
2017-08-25T15:12:18.769Z,27.58
2017-08-25T15:13:19.504Z,27.36
2017-08-25T15:14:20.259Z,27.42
2017-08-25T15:15:20.995Z,27.48
2017-08-25T15:16:21.766Z,27.40
2017-08-25T15:17:22.493Z,27.36
2017-08-25T15:18:23.229Z,27.17
2017-08-25T15:19:23.962Z,27.00
2017-08-25T15:20:24.696Z,26.89
2017-08-25T15:21:25.457Z,26.74
2017-08-25T15:22:26.211Z,26.66
2017-08-25T15:23:26.948Z,26.66
2017-08-25T15:24:27.677Z,26.59
2017-08-25T15:25:28.435Z,26.56
2017-08-25T15:26:29.187Z,26.58
2017-08-25T15:27:29.920Z,26.65
2017-08-25T15:28:30.654Z,26.65
2017-08-25T15:29:31.386Z,26.62
2017-08-25T15:30:32.141Z,26.58
2017-08-25T15:31:32.897Z,26.60
2017-08-25T15:32:33.636Z,26.58
2017-08-25T15:33:34.386Z,26.59
2017-08-25T15:34:35.120Z,26.56
2017-08-25T15:35:35.877Z,26.56
2017-08-25T15:36:36.612Z,26.70
2017-08-25T15:37:37.348Z,26.84
2017-08-25T15:38:38.082Z,26.68
2017-08-25T15:39:38.836Z,26.73
2017-08-25T15:40:39.573Z,26.85
2017-08-25T15:41:40.304Z,26.81
2017-08-25T15:42:41.041Z,26.88
2017-08-25T15:43:41.776Z,26.81
2017-08-25T15:44:42.510Z,26.85
2017-08-25T15:45:43.263Z,26.88
2017-08-25T15:46:44.017Z,26.97
2017-08-25T15:47:44.754Z,27.03
2017-08-25T15:48:45.487Z,26.84
2017-08-25T15:49:46.239Z,26.88
2017-08-25T15:50:46.971Z,26.74
2017-08-25T15:51:47.705Z,26.68
2017-08-25T15:52:48.502Z,26.75
2017-08-25T15:53:49.250Z,26.59
2017-08-25T15:54:49.975Z,26.60
2017-08-25T15:55:50.709Z,26.59
2017-08-25T15:56:51.445Z,26.58
2017-08-25T15:57:52.189Z,26.63
2017-08-25T15:58:52.990Z,26.44
2017-08-25T15:59:53.764Z,26.45
2017-08-25T16:00:54.530Z,26.38
2017-08-25T16:01:55.275Z,26.56
2017-08-25T16:02:56.022Z,26.56
2017-08-25T16:03:56.756Z,26.43
2017-08-25T16:04:57.491Z,26.43
2017-08-25T16:05:58.279Z,26.45
2017-08-25T16:06:59.023Z,26.38
2017-08-25T16:07:59.758Z,26.19
2017-08-25T16:09:00.491Z,26.15
2017-08-25T16:10:01.222Z,26.02
2017-08-25T16:11:01.977Z,25.90
2017-08-25T16:12:02.712Z,25.85
2017-08-25T16:13:03.464Z,25.91
2017-08-25T16:14:04.200Z,25.88
2017-08-25T16:15:04.955Z,25.88
2017-08-25T16:16:05.688Z,25.88
2017-08-25T16:17:06.438Z,26.09
2017-08-25T16:18:07.177Z,26.02
2017-08-25T16:19:07.905Z,25.98
2017-08-25T16:20:08.639Z,26.05
2017-08-25T16:21:09.368Z,25.85
2017-08-25T16:22:10.107Z,25.87
2017-08-25T16:23:10.839Z,25.78
2017-08-25T16:24:11.587Z,25.78
2017-08-25T16:25:12.325Z,25.84
2017-08-25T16:26:13.071Z,25.84
2017-08-25T16:27:13.800Z,25.77
2017-08-25T16:28:14.556Z,25.70
2017-08-25T16:29:15.288Z,25.68
2017-08-25T16:30:16.030Z,25.68
2017-08-25T16:31:16.783Z,25.66
2017-08-25T16:32:17.516Z,25.68
2017-08-25T16:33:18.252Z,25.63
2017-08-25T16:34:18.981Z,25.69
2017-08-25T16:35:19.733Z,25.66
2017-08-25T16:36:20.482Z,25.50
2017-08-25T16:37:21.202Z,25.44
2017-08-25T16:38:21.934Z,25.50
2017-08-25T16:39:22.664Z,25.51
2017-08-25T16:40:23.396Z,25.50
2017-08-25T16:41:24.139Z,25.50
2017-08-25T16:42:24.860Z,25.58
2017-08-25T16:43:25.594Z,25.41
2017-08-25T16:44:26.324Z,25.50
2017-08-25T16:45:27.056Z,25.41
2017-08-25T16:46:27.783Z,25.40
2017-08-25T16:47:28.534Z,25.36
2017-08-25T16:48:29.282Z,25.40
2017-08-25T16:49:30.013Z,25.44
2017-08-25T16:50:30.743Z,25.36
2017-08-25T16:51:31.471Z,25.41
2017-08-25T16:52:32.221Z,25.43